Time;durP1;ratioP1;P1;durP2;ratioP2;P2;SDS_P1;SDS_P2;PMS_P1;PMS_P2;Temp;Humidity;BMP_temperature;BMP_pressure;BME280_temperature;BME280_humidity;BME280_pressure;Samples;Min_cycle;Max_cycle;Signal;HPM_P1;HPM_P2
2021/12/01 00:01:20;;;;;;;4.00;2.30;;;11.40;91.70;;;;;;5079719;28;20194;-85
2021/12/01 00:03:46;;;;;;;6.33;2.40;;;11.30;91.70;;;;;;5097439;28;20671;-86
2021/12/01 00:06:12;;;;;;;2.20;2.00;;;11.30;91.70;;;;;;5079337;28;20685;-86
2021/12/01 00:08:38;;;;;;;2.57;2.00;;;11.30;91.60;;;;;;5079951;28;20172;-86
2021/12/01 00:11:03;;;;;;;4.40;2.30;;;11.30;91.60;;;;;;5087798;28;20430;-86
2021/12/01 00:13:32;;;;;;;3.40;2.67;;;11.40;91.40;;;;;;5090199;28;20556;-87
2021/12/01 00:15:58;;;;;;;7.30;3.40;;;11.30;91.30;;;;;;5099549;28;20217;-86
2021/12/01 00:18:24;;;;;;;4.43;3.03;;;11.30;91.30;;;;;;5099401;28;20213;-87
2021/12/01 00:20:50;;;;;;;3.67;3.37;;;11.20;91.10;;;;;;5099869;28;20568;-86
2021/12/01 00:23:15;;;;;;;4.17;3.77;;;11.20;91.10;;;;;;5117685;28;20171;-86
2021/12/01 00:25:42;;;;;;;5.40;4.10;;;11.20;91.00;;;;;;5099449;28;20234;-86
2021/12/01 00:28:09;;;;;;;4.93;3.88;;;11.20;91.00;;;;;;5102158;28;20657;-87
2021/12/01 00:30:35;;;;;;;8.20;4.38;;;11.20;91.00;;;;;;5087899;28;20195;-86
2021/12/01 00:33:01;;;;;;;4.72;4.32;;;11.20;90.90;;;;;;5079010;28;20221;-86
2021/12/01 00:35:27;;;;;;;7.07;5.22;;;11.10;90.70;;;;;;5086976;28;20602;-87
2021/12/01 00:37:53;;;;;;;6.25;4.90;;;11.10;90.60;;;;;;5096805;28;20196;-86
2021/12/01 00:40:19;;;;;;;10.00;5.30;;;11.10;90.70;;;;;;5077768;28;20202;-86
2021/12/01 00:42:45;;;;;;;8.65;6.00;;;11.20;90.70;;;;;;5081787;28;20436;-86
2021/12/01 00:45:17;;;;;;;9.37;6.50;;;11.10;90.40;;;;;;5098524;28;20199;-86
2021/12/01 00:50:14;;;;;;;6.00;4.55;;;11.30;90.20;;;;;;5097244;28;20175;-87
2021/12/01 00:52:40;;;;;;;6.78;4.63;;;11.20;89.90;;;;;;5096837;28;20183;-86
2021/12/01 00:55:07;;;;;;;5.90;5.30;;;11.30;89.90;;;;;;5078434;28;20207;-86
2021/12/01 00:57:38;;;;;;;7.10;5.28;;;11.20;89.70;;;;;;5078777;28;20179;-86
2021/12/01 01:00:05;;;;;;;8.52;5.68;;;11.10;89.70;;;;;;5079333;28;20191;-86
2021/12/01 01:02:32;;;;;;;8.00;5.93;;;11.10;89.50;;;;;;5085100;28;20176;-85
2021/12/01 01:04:58;;;;;;;5.28;4.78;;;11.00;89.50;;;;;;5086744;28;20315;-86
2021/12/01 01:07:34;;;;;;;6.53;5.83;;;11.10;89.50;;;;;;5089284;28;20199;-85
2021/12/01 01:10:06;;;;;;;7.10;5.40;;;11.10;89.40;;;;;;5101302;28;20218;-85
2021/12/01 01:18:08;;;;;;;4.50;4.07;;;11.10;89.40;;;;;;5096768;28;20171;-86
2021/12/01 01:20:35;;;;;;;5.90;4.50;;;11.00;89.40;;;;;;5113240;28;20194;-86
2021/12/01 01:23:01;;;;;;;4.90;4.40;;;11.00;89.40;;;;;;5081491;28;20596;-86
2021/12/01 01:25:28;;;;;;;6.60;5.18;;;11.00;89.60;;;;;;5077826;28;20203;-86
2021/12/01 01:27:54;;;;;;;4.30;3.90;;;10.90;89.60;;;;;;5078142;28;20541;-85
2021/12/01 01:30:20;;;;;;;4.22;3.90;;;10.80;89.80;;;;;;5077941;28;20259;-86
2021/12/01 01:32:46;;;;;;;4.00;3.60;;;10.80;90.10;;;;;;5097191;28;20180;-85
2021/12/01 01:35:13;;;;;;;5.53;4.47;;;10.80;90.30;;;;;;5097190;28;20466;-86
2021/12/01 01:37:41;;;;;;;3.85;3.55;;;10.90;90.40;;;;;;5090476;28;20175;-85
2021/12/01 01:40:08;;;;;;;3.50;3.20;;;10.80;90.40;;;;;;5095704;28;20180;-85
2021/12/01 01:42:34;;;;;;;3.72;3.42;;;10.80;90.50;;;;;;5117175;28;20370;-84
2021/12/01 01:44:59;;;;;;;4.33;3.80;;;10.90;90.60;;;;;;5128105;28;20208;-85
2021/12/01 01:47:25;;;;;;;5.80;3.77;;;10.90;90.40;;;;;;5130097;28;20441;-85
2021/12/01 01:50:01;;;;;;;3.40;3.10;;;10.80;90.20;;;;;;5109794;28;20436;-85
2021/12/01 01:52:28;;;;;;;5.30;3.85;;;10.90;90.20;;;;;;5111411;28;20188;-85
2021/12/01 01:54:54;;;;;;;4.90;3.75;;;10.90;90.10;;;;;;5087516;28;20270;-86
2021/12/01 01:57:20;;;;;;;3.35;3.05;;;10.80;89.90;;;;;;5114421;28;20199;-86
2021/12/01 01:59:46;;;;;;;2.95;2.75;;;10.80;89.80;;;;;;5098370;28;20176;-86
2021/12/01 02:02:12;;;;;;;7.72;2.97;;;10.80;89.70;;;;;;5094018;28;20184;-86
2021/12/01 02:04:38;;;;;;;3.90;3.50;;;10.80;89.60;;;;;;5120016;28;20203;-86
2021/12/01 02:07:06;;;;;;;9.88;4.53;;;10.80;89.50;;;;;;5108535;28;20457;-85
2021/12/01 02:09:32;;;;;;;5.82;3.28;;;10.70;89.40;;;;;;5105044;28;20175;-85
2021/12/01 02:12:01;;;;;;;3.35;3.15;;;10.50;89.40;;;;;;5091846;28;20160;-86
2021/12/01 02:14:28;;;;;;;4.35;4.00;;;10.60;89.50;;;;;;5077472;28;20208;-86
2021/12/01 02:16:57;;;;;;;3.55;3.25;;;10.50;89.20;;;;;;5093565;28;20642;-86
2021/12/01 02:19:24;;;;;;;6.10;3.53;;;10.60;89.10;;;;;;5078250;28;20316;-86
2021/12/01 02:21:50;;;;;;;3.97;2.97;;;10.60;89.00;;;;;;5083169;28;20541;-86
2021/12/01 02:24:19;;;;;;;3.83;3.42;;;10.60;89.10;;;;;;5097570;28;20199;-85
2021/12/01 02:26:47;;;;;;;3.53;3.10;;;10.70;89.10;;;;;;5103250;28;20218;-86
2021/12/01 02:29:20;;;;;;;5.47;3.45;;;10.60;88.70;;;;;;5072386;28;20192;-86
2021/12/01 02:31:47;;;;;;;4.30;3.90;;;10.60;88.60;;;;;;5058843;28;20180;-86
2021/12/01 02:34:19;;;;;;;5.93;4.97;;;10.60;88.60;;;;;;5087449;28;20203;-86
2021/12/01 02:36:56;;;;;;;4.15;3.20;;;10.60;88.60;;;;;;5104431;28;20285;-85
2021/12/01 02:39:22;;;;;;;6.55;4.18;;;10.60;88.50;;;;;;5092995;28;20184;-86
2021/12/01 02:41:52;;;;;;;4.13;3.42;;;10.60;88.50;;;;;;5098413;28;20180;-85
2021/12/01 02:44:18;;;;;;;4.15;2.80;;;10.50;88.40;;;;;;5114440;28;20206;-86
2021/12/01 02:46:44;;;;;;;3.60;3.30;;;10.50;88.50;;;;;;5116599;28;20199;-87
2021/12/01 02:49:10;;;;;;;4.22;3.40;;;10.50;88.60;;;;;;5131443;28;20186;-86
2021/12/01 02:51:37;;;;;;;4.57;3.60;;;10.50;88.70;;;;;;5097310;28;20215;-86
2021/12/01 02:54:04;;;;;;;3.45;3.15;;;10.50;88.80;;;;;;5118772;28;20282;-87
2021/12/01 02:56:32;;;;;;;3.38;3.08;;;10.50;88.90;;;;;;5088561;28;20191;-87
2021/12/01 02:59:00;;;;;;;4.03;3.63;;;10.50;88.90;;;;;;5076903;28;20627;-85
2021/12/01 03:01:26;;;;;;;4.28;3.88;;;10.40;88.80;;;;;;5084826;28;20642;-86
2021/12/01 03:03:53;;;;;;;6.43;4.35;;;10.40;88.90;;;;;;5105284;28;20196;-85
2021/12/01 03:06:21;;;;;;;5.55;5.05;;;10.40;88.90;;;;;;5080706;28;20195;-86
2021/12/01 03:08:48;;;;;;;5.25;4.22;;;10.40;88.70;;;;;;5063829;28;20203;-86
2021/12/01 03:11:15;;;;;;;4.47;4.00;;;10.30;88.70;;;;;;5099168;28;20184;-85
2021/12/01 03:13:41;;;;;;;7.13;5.05;;;10.20;88.60;;;;;;5080214;28;20250;-86
2021/12/01 03:16:07;;;;;;;7.20;5.15;;;10.30;89.10;;;;;;5080341;28;20202;-86
2021/12/01 03:18:33;;;;;;;5.32;4.82;;;10.20;88.90;;;;;;5080316;28;20555;-85
2021/12/01 03:21:00;;;;;;;14.27;4.90;;;10.20;89.20;;;;;;5092546;28;20278;-87
2021/12/01 03:23:26;;;;;;;7.05;5.65;;;10.20;89.50;;;;;;5100768;28;20824;-86
2021/12/01 03:25:53;;;;;;;4.88;4.15;;;10.10;89.70;;;;;;5118712;28;20202;-87
2021/12/01 03:28:19;;;;;;;8.50;5.40;;;10.10;89.70;;;;;;5094023;28;20594;-86
2021/12/01 03:30:46;;;;;;;6.40;5.38;;;10.10;89.90;;;;;;5098607;28;20176;-86
2021/12/01 03:33:17;;;;;;;9.75;5.47;;;10.10;89.70;;;;;;5080329;28;20228;-87
2021/12/01 03:35:48;;;;;;;6.43;5.07;;;10.10;89.80;;;;;;5080364;28;20203;-86
2021/12/01 03:38:15;;;;;;;11.40;6.53;;;10.10;90.50;;;;;;5093379;28;20167;-87
2021/12/01 03:40:42;;;;;;;9.27;5.50;;;10.10;89.70;;;;;;5100606;28;20183;-87
2021/12/01 03:43:07;;;;;;;7.13;6.43;;;10.20;89.70;;;;;;5092258;28;20175;-87
2021/12/01 03:45:33;;;;;;;8.13;7.33;;;10.30;89.60;;;;;;5114097;28;20555;-86
2021/12/01 03:47:59;;;;;;;6.43;5.10;;;10.30;89.30;;;;;;5118231;28;20175;-85
2021/12/01 03:50:25;;;;;;;9.17;6.50;;;10.10;88.80;;;;;;5085959;28;20937;-87
2021/12/01 03:52:51;;;;;;;8.75;5.82;;;10.40;88.90;;;;;;5089178;28;20578;-87
2021/12/01 03:55:17;;;;;;;15.68;5.88;;;10.30;88.70;;;;;;5099682;28;20199;-87
2021/12/01 03:57:44;;;;;;;5.80;5.07;;;10.40;88.60;;;;;;5099664;28;20202;-87
2021/12/01 04:00:12;;;;;;;6.68;5.15;;;10.30;88.20;;;;;;5099684;28;20425;-86
2021/12/01 04:02:38;;;;;;;6.22;5.47;;;10.00;87.60;;;;;;5084587;28;20202;-86
2021/12/01 04:05:05;;;;;;;5.82;4.97;;;10.00;88.00;;;;;;5097968;28;20270;-85
2021/12/01 04:07:30;;;;;;;5.60;4.55;;;10.10;88.10;;;;;;5099345;28;20190;-86
2021/12/01 04:09:56;;;;;;;6.37;4.97;;;9.90;87.60;;;;;;5099364;28;20171;-86
2021/12/01 04:12:22;;;;;;;5.87;4.30;;;9.80;87.70;;;;;;5070194;28;20191;-86
2021/12/01 04:14:48;;;;;;;10.77;5.38;;;9.80;88.40;;;;;;5077450;28;20207;-87
2021/12/01 04:17:14;;;;;;;5.23;4.50;;;9.90;88.90;;;;;;5079058;28;22019;-87
2021/12/01 04:19:39;;;;;;;7.90;5.23;;;9.80;89.10;;;;;;5079521;28;20207;-86
2021/12/01 04:22:05;;;;;;;7.13;5.00;;;9.70;89.80;;;;;;5079150;28;21002;-86
2021/12/01 04:24:31;;;;;;;5.43;4.67;;;9.80;90.10;;;;;;5096541;28;20195;-86
2021/12/01 04:26:58;;;;;;;10.10;4.13;;;9.90;90.40;;;;;;5079265;28;20540;-87
2021/12/01 04:29:24;;;;;;;6.90;3.90;;;9.80;90.20;;;;;;5080412;28;20402;-87
2021/12/01 04:31:50;;;;;;;11.00;3.83;;;9.70;90.50;;;;;;5079710;28;20206;-87
2021/12/01 04:34:16;;;;;;;3.70;3.10;;;9.60;90.70;;;;;;5086758;28;20203;-86
2021/12/01 04:36:43;;;;;;;6.13;3.78;;;9.70;91.10;;;;;;5097015;28;20267;-86
2021/12/01 04:39:12;;;;;;;4.70;3.47;;;9.70;91.00;;;;;;5078377;28;20735;-86
2021/12/01 04:41:41;;;;;;;3.60;2.72;;;9.70;91.10;;;;;;5061793;28;20627;-86
2021/12/01 04:44:10;;;;;;;3.45;3.13;;;9.90;91.40;;;;;;5096163;28;20271;-87
2021/12/01 04:46:44;;;;;;;2.63;2.42;;;9.80;91.20;;;;;;5097315;28;20294;-86
2021/12/01 04:49:12;;;;;;;2.75;2.55;;;9.50;90.90;;;;;;5096718;28;20610;-86
2021/12/01 04:51:42;;;;;;;3.53;2.13;;;9.50;91.20;;;;;;5096791;28;20221;-86
2021/12/01 04:54:08;;;;;;;2.33;2.13;;;9.40;91.40;;;;;;5105482;28;20199;-86
2021/12/01 04:56:35;;;;;;;2.88;2.20;;;9.50;91.90;;;;;;5081742;28;20176;-87
2021/12/01 04:59:01;;;;;;;2.33;2.15;;;9.60;92.00;;;;;;5094855;28;20271;-87
2021/12/01 05:01:26;;;;;;;3.10;2.07;;;9.60;92.00;;;;;;5107569;28;20810;-86
2021/12/01 05:03:52;;;;;;;3.30;2.10;;;9.70;92.10;;;;;;5108631;28;20827;-85
2021/12/01 05:06:18;;;;;;;1.70;1.60;;;9.50;91.80;;;;;;5090750;28;20291;-86
2021/12/01 05:08:45;;;;;;;2.30;2.00;;;9.50;92.00;;;;;;5117212;28;20183;-86
2021/12/01 05:11:11;;;;;;;1.70;1.60;;;9.70;92.10;;;;;;5088384;28;20187;-86
2021/12/01 05:13:37;;;;;;;1.53;1.43;;;9.80;92.10;;;;;;5085702;28;20172;-86
2021/12/01 05:16:03;;;;;;;3.10;1.20;;;9.70;91.80;;;;;;5110321;28;20245;-86
2021/12/01 05:18:28;;;;;;;2.03;1.83;;;9.70;91.70;;;;;;5085590;28;20184;-86
2021/12/01 05:20:54;;;;;;;3.73;1.70;;;9.70;91.70;;;;;;5117393;28;20728;-86
2021/12/01 05:23:20;;;;;;;3.10;1.40;;;9.70;91.50;;;;;;5087531;28;20635;-86
2021/12/01 05:25:46;;;;;;;2.73;1.60;;;9.70;91.50;;;;;;5101427;28;20210;-86
2021/12/01 05:28:12;;;;;;;1.80;1.70;;;9.60;91.30;;;;;;5117604;28;20553;-86
2021/12/01 05:30:38;;;;;;;1.42;1.33;;;9.60;91.30;;;;;;5089678;28;20255;-87
2021/12/01 05:33:14;;;;;;;1.60;1.50;;;9.70;91.50;;;;;;5092125;28;20578;-86
2021/12/01 05:35:42;;;;;;;1.65;1.45;;;9.80;91.40;;;;;;5102681;28;20206;-86
2021/12/01 05:38:09;;;;;;;1.52;1.42;;;9.80;91.30;;;;;;5061749;28;20195;-86
2021/12/01 05:40:36;;;;;;;2.05;1.73;;;9.90;91.30;;;;;;5078168;28;20188;-87
2021/12/01 05:43:02;;;;;;;1.50;1.40;;;9.90;91.30;;;;;;5086361;28;20179;-86
2021/12/01 05:45:28;;;;;;;1.33;1.15;;;9.80;91.10;;;;;;5076988;28;20234;-86
2021/12/01 05:47:54;;;;;;;2.10;1.83;;;9.80;91.10;;;;;;5096016;28;20247;-86
2021/12/01 05:50:19;;;;;;;2.10;2.00;;;9.90;91.10;;;;;;5077339;28;20203;-86
2021/12/01 05:52:45;;;;;;;2.27;1.70;;;9.80;91.60;;;;;;5077671;28;20242;-86
2021/12/01 05:55:11;;;;;;;3.00;2.03;;;9.80;91.00;;;;;;5082017;28;20219;-86
2021/12/01 05:57:37;;;;;;;3.53;1.70;;;9.80;90.90;;;;;;5085676;28;20249;-86
2021/12/01 06:00:08;;;;;;;2.20;2.00;;;9.80;91.00;;;;;;5090477;28;20187;-85
2021/12/01 06:02:34;;;;;;;3.03;2.17;;;9.80;91.00;;;;;;5088413;28;20420;-86
2021/12/01 06:05:00;;;;;;;2.40;2.20;;;9.80;90.90;;;;;;5094906;28;20219;-87
2021/12/01 06:07:26;;;;;;;2.40;2.20;;;10.00;91.10;;;;;;5077328;28;20271;-86
2021/12/01 06:09:52;;;;;;;3.63;2.43;;;10.00;90.90;;;;;;5085795;28;20225;-84
2021/12/01 06:12:18;;;;;;;2.30;2.10;;;9.90;90.70;;;;;;5091086;28;20175;-84
2021/12/01 06:14:44;;;;;;;2.30;2.10;;;9.90;90.70;;;;;;5086353;28;20454;-83
2021/12/01 06:17:12;;;;;;;4.10;2.58;;;10.00;90.70;;;;;;5090629;28;20183;-82
2021/12/01 06:19:38;;;;;;;4.47;2.95;;;10.00;90.70;;;;;;5104990;28;20175;-83
2021/12/01 06:22:05;;;;;;;3.37;2.97;;;10.10;90.80;;;;;;5087299;28;20190;-83
2021/12/01 06:24:31;;;;;;;2.90;2.67;;;9.90;90.60;;;;;;5096837;28;20440;-83
2021/12/01 06:26:56;;;;;;;3.07;2.63;;;10.00;90.70;;;;;;5091287;28;20204;-84
2021/12/01 06:29:22;;;;;;;3.70;3.20;;;10.10;90.90;;;;;;5109608;28;20924;-86
2021/12/01 06:31:48;;;;;;;3.03;2.73;;;10.10;90.80;;;;;;5095868;28;20182;-85
2021/12/01 06:34:14;;;;;;;4.33;2.73;;;10.20;90.80;;;;;;5101366;28;20452;-85
2021/12/01 06:36:40;;;;;;;2.60;2.40;;;10.10;90.70;;;;;;5109726;28;20278;-86
2021/12/01 06:39:06;;;;;;;6.43;2.67;;;10.10;90.70;;;;;;5112103;28;20460;-85
2021/12/01 06:41:33;;;;;;;3.50;2.75;;;10.20;90.60;;;;;;5100153;28;20188;-85
2021/12/01 06:43:59;;;;;;;3.80;3.30;;;10.30;90.70;;;;;;5080508;28;20199;-85
2021/12/01 06:46:28;;;;;;;3.55;2.95;;;10.10;90.40;;;;;;5099478;28;20253;-86
2021/12/01 06:48:54;;;;;;;3.50;3.20;;;10.20;90.40;;;;;;5088922;28;20186;-86
2021/12/01 06:51:20;;;;;;;4.95;2.88;;;10.20;90.40;;;;;;5082318;28;20229;-83
2021/12/01 06:53:46;;;;;;;3.30;3.10;;;10.20;90.40;;;;;;5114085;28;20191;-85
2021/12/01 06:56:12;;;;;;;3.03;2.73;;;10.10;90.30;;;;;;5096253;28;20885;-85
2021/12/01 06:58:38;;;;;;;3.38;3.08;;;10.10;90.30;;;;;;5105459;28;20565;-85
2021/12/01 07:01:06;;;;;;;2.90;2.70;;;10.30;90.30;;;;;;5080225;28;20176;-86
2021/12/01 07:03:33;;;;;;;4.20;3.15;;;10.30;90.20;;;;;;5080203;28;20199;-86
2021/12/01 07:05:59;;;;;;;6.32;3.17;;;10.40;90.00;;;;;;5099762;28;20207;-86
2021/12/01 07:08:24;;;;;;;3.58;3.05;;;10.30;89.80;;;;;;5097125;28;20180;-86
2021/12/01 07:10:51;;;;;;;3.60;3.30;;;10.20;89.50;;;;;;5102005;28;20262;-86
2021/12/01 07:13:17;;;;;;;3.22;2.60;;;10.30;89.70;;;;;;5084898;28;20171;-86
2021/12/01 07:15:43;;;;;;;3.67;3.00;;;10.20;89.60;;;;;;5106271;28;20222;-86
2021/12/01 07:18:09;;;;;;;3.58;2.95;;;10.10;89.80;;;;;;5079118;28;20701;-86
2021/12/01 07:20:35;;;;;;;3.00;2.70;;;10.10;89.90;;;;;;5078523;28;20180;-86
2021/12/01 07:23:02;;;;;;;12.07;3.83;;;10.20;89.80;;;;;;5076814;28;20227;-86
2021/12/01 07:25:29;;;;;;;2.53;2.35;;;10.30;90.00;;;;;;5078806;28;20306;-86
2021/12/01 07:27:55;;;;;;;4.75;3.33;;;10.30;89.70;;;;;;5098172;28;20196;-86
2021/12/01 07:30:21;;;;;;;2.60;2.40;;;10.40;89.40;;;;;;5088281;28;20179;-86
2021/12/01 07:32:48;;;;;;;5.78;3.13;;;10.30;89.20;;;;;;5104511;28;20187;-85
2021/12/01 07:35:14;;;;;;;4.22;3.60;;;10.40;89.20;;;;;;5112584;28;20275;-86
2021/12/01 07:37:40;;;;;;;3.70;3.20;;;10.40;89.10;;;;;;5095578;28;20175;-86
2021/12/01 07:40:07;;;;;;;3.33;2.80;;;10.50;89.00;;;;;;5079181;28;20483;-86
2021/12/01 07:42:32;;;;;;;5.07;3.40;;;10.40;88.80;;;;;;5077774;28;20474;-86
2021/12/01 07:44:58;;;;;;;3.10;2.77;;;10.40;88.80;;;;;;5094912;28;20195;-86
2021/12/01 07:47:24;;;;;;;3.43;3.13;;;10.40;88.90;;;;;;5094816;28;20220;-86
2021/12/01 07:49:50;;;;;;;3.37;3.10;;;10.40;88.90;;;;;;5078810;28;20180;-84
2021/12/01 07:52:15;;;;;;;3.50;2.13;;;10.50;89.00;;;;;;5099747;28;20174;-84
2021/12/01 07:54:41;;;;;;;3.07;2.87;;;10.50;88.90;;;;;;5081246;28;20465;-83
2021/12/01 07:57:08;;;;;;;6.93;2.80;;;10.40;88.90;;;;;;5081140;28;20441;-84
2021/12/01 07:59:34;;;;;;;5.63;2.92;;;10.50;89.00;;;;;;5098923;28;20559;-83
2021/12/01 08:02:00;;;;;;;11.02;3.00;;;10.40;89.00;;;;;;5081227;28;20186;-84
2021/12/01 08:04:26;;;;;;;4.93;2.80;;;10.50;89.10;;;;;;5079727;28;20197;-84
2021/12/01 08:06:52;;;;;;;5.30;2.50;;;10.50;89.20;;;;;;5079509;28;20214;-84
2021/12/01 08:09:18;;;;;;;4.47;2.20;;;10.60;89.00;;;;;;5081192;28;20176;-84
2021/12/01 08:11:43;;;;;;;2.60;2.30;;;10.60;88.80;;;;;;5081302;28;20270;-87
2021/12/01 08:14:09;;;;;;;3.30;3.00;;;10.70;88.60;;;;;;5098641;28;20207;-86
2021/12/01 08:16:36;;;;;;;6.90;1.80;;;10.70;88.30;;;;;;5099958;28;20152;-86
2021/12/01 08:19:02;;;;;;;2.80;1.33;;;10.60;88.20;;;;;;5081688;28;20642;-86
2021/12/01 08:21:28;;;;;;;1.65;1.55;;;10.50;88.20;;;;;;5084463;28;20187;-86
2021/12/01 08:23:53;;;;;;;1.37;1.20;;;10.60;88.30;;;;;;5105927;28;20534;-86
2021/12/01 08:26:20;;;;;;;1.70;1.40;;;10.60;88.10;;;;;;5085569;28;20241;-86
2021/12/01 08:28:47;;;;;;;1.90;1.20;;;10.70;88.20;;;;;;5082382;28;20817;-86
2021/12/01 08:31:17;;;;;;;3.25;1.48;;;10.80;88.00;;;;;;5082645;28;20187;-87
2021/12/01 08:33:44;;;;;;;1.60;1.50;;;10.70;87.60;;;;;;5087064;28;20199;-86
2021/12/01 08:36:11;;;;;;;1.88;1.10;;;10.60;87.50;;;;;;5099122;28;20175;-84
2021/12/01 08:38:38;;;;;;;1.58;1.48;;;10.60;87.70;;;;;;5081012;28;20249;-84
2021/12/01 08:41:06;;;;;;;2.70;1.67;;;10.70;87.90;;;;;;5080992;28;20180;-85
2021/12/01 08:43:32;;;;;;;2.60;1.52;;;10.60;87.90;;;;;;5080083;28;20209;-85
2021/12/01 08:45:58;;;;;;;2.85;1.48;;;10.70;88.10;;;;;;5099186;28;20204;-84
2021/12/01 08:48:24;;;;;;;2.70;1.50;;;10.60;88.20;;;;;;5082123;28;20178;-84
2021/12/01 08:50:50;;;;;;;3.72;1.45;;;10.50;88.50;;;;;;5083198;28;20184;-84
2021/12/01 08:53:16;;;;;;;1.92;1.30;;;10.60;88.60;;;;;;5082203;28;20172;-85
2021/12/01 08:55:42;;;;;;;6.33;1.33;;;10.50;88.80;;;;;;5083220;28;20222;-85
2021/12/01 08:58:09;;;;;;;1.70;1.60;;;10.50;89.00;;;;;;5083534;28;20428;-85
2021/12/01 09:00:37;;;;;;;2.33;1.80;;;10.40;89.10;;;;;;5103699;28;20417;-82
2021/12/01 09:03:04;;;;;;;2.72;1.48;;;10.40;89.40;;;;;;5113788;28;20195;-82
2021/12/01 09:05:31;;;;;;;4.70;2.40;;;10.40;89.60;;;;;;5114744;28;20222;-82
2021/12/01 09:07:56;;;;;;;2.72;1.58;;;10.20;90.00;;;;;;5114368;28;20180;-83
2021/12/01 09:10:22;;;;;;;4.23;2.33;;;10.20;90.50;;;;;;5111656;28;20182;-82
2021/12/01 09:12:48;;;;;;;6.20;2.87;;;10.10;91.00;;;;;;5102767;28;20440;-83
2021/12/01 09:15:14;;;;;;;5.13;2.77;;;10.10;90.70;;;;;;5101718;28;20872;-83
2021/12/01 09:17:40;;;;;;;6.87;3.30;;;10.20;90.70;;;;;;5083931;28;20180;-83
2021/12/01 09:20:07;;;;;;;3.17;2.65;;;10.20;90.60;;;;;;5102066;28;20515;-82
2021/12/01 09:22:33;;;;;;;6.07;3.38;;;10.20;90.50;;;;;;5084064;28;20182;-82
2021/12/01 09:24:59;;;;;;;6.93;3.30;;;10.10;90.40;;;;;;5083831;28;20203;-83
2021/12/01 09:27:25;;;;;;;6.95;3.35;;;10.10;90.20;;;;;;5102035;28;20453;-82
2021/12/01 09:29:53;;;;;;;9.33;3.53;;;10.10;90.00;;;;;;5083458;28;20310;-83
2021/12/01 09:32:19;;;;;;;5.90;3.08;;;10.10;89.90;;;;;;5083098;28;20175;-83
2021/12/01 09:34:45;;;;;;;8.70;3.05;;;10.10;89.40;;;;;;5081092;28;20195;-82
2021/12/01 09:37:11;;;;;;;5.87;3.10;;;10.10;89.40;;;;;;5082874;28;20180;-83
2021/12/01 09:39:37;;;;;;;8.93;3.00;;;10.10;89.30;;;;;;5082404;28;20897;-84
2021/12/01 09:42:03;;;;;;;6.15;2.47;;;10.30;89.20;;;;;;5081403;28;20467;-83
2021/12/01 09:44:30;;;;;;;3.22;2.45;;;10.20;88.70;;;;;;5081333;28;20207;-83
2021/12/01 09:46:56;;;;;;;6.80;2.42;;;10.40;88.40;;;;;;5082109;28;20249;-83
2021/12/01 09:49:23;;;;;;;7.17;3.07;;;10.30;87.90;;;;;;5081269;28;20179;-83
2021/12/01 09:51:48;;;;;;;7.78;2.75;;;10.20;87.50;;;;;;5081686;28;20414;-83
2021/12/01 09:54:14;;;;;;;10.80;4.20;;;10.20;87.50;;;;;;5080233;28;20200;-83
2021/12/01 09:56:40;;;;;;;22.23;2.60;;;10.10;87.50;;;;;;5080418;28;20418;-83
2021/12/01 09:59:06;;;;;;;13.23;2.57;;;10.10;87.50;;;;;;5081073;28;20418;-83
2021/12/01 10:01:31;;;;;;;6.00;1.93;;;10.10;87.20;;;;;;5080457;28;20727;-84
2021/12/01 10:03:58;;;;;;;7.63;1.60;;;10.00;86.20;;;;;;5080077;28;20513;-84
2021/12/01 10:06:25;;;;;;;8.68;2.88;;;10.00;86.40;;;;;;5080494;28;20464;-83
2021/12/01 10:09:07;;;;;;;6.55;1.85;;;10.10;86.20;;;;;;5081403;28;20175;-83
2021/12/01 10:11:41;;;;;;;10.40;2.30;;;10.10;85.70;;;;;;5097239;28;20216;-83
2021/12/01 10:14:15;;;;;;;7.22;2.65;;;10.00;85.00;;;;;;5100765;28;20199;-83
2021/12/01 10:16:43;;;;;;;7.93;1.45;;;10.10;85.00;;;;;;5102401;28;20548;-83
2021/12/01 10:19:14;;;;;;;12.38;1.75;;;10.10;84.00;;;;;;5120130;28;20175;-84
2021/12/01 10:21:47;;;;;;;7.47;2.55;;;10.10;83.30;;;;;;5120415;28;20187;-83
2021/12/01 10:24:16;;;;;;;11.80;4.50;;;10.20;83.20;;;;;;5068569;28;20202;-83
2021/12/01 10:26:59;;;;;;;6.18;2.22;;;10.10;82.90;;;;;;5119781;28;20247;-83
2021/12/01 10:29:31;;;;;;;4.03;1.70;;;10.00;83.00;;;;;;5099542;28;20659;-84
2021/12/01 10:32:01;;;;;;;2.85;1.50;;;9.80;82.70;;;;;;5118673;28;20211;-83
2021/12/01 10:34:33;;;;;;;7.85;1.10;;;9.70;82.10;;;;;;5098970;28;20266;-83
2021/12/01 10:37:07;;;;;;;2.97;1.20;;;9.70;82.00;;;;;;5099587;28;20232;-83
2021/12/01 10:39:33;;;;;;;7.40;1.70;;;9.80;81.90;;;;;;5099393;28;20197;-83
2021/12/01 10:42:08;;;;;;;9.03;2.07;;;9.90;82.00;;;;;;5099361;28;20626;-84
2021/12/01 10:44:35;;;;;;;7.90;2.53;;;9.70;81.20;;;;;;5117353;28;20439;-82
2021/12/01 10:47:11;;;;;;;3.13;1.10;;;9.70;81.30;;;;;;5116954;28;20194;-83
2021/12/01 10:49:43;;;;;;;7.22;1.60;;;9.70;81.20;;;;;;5100239;28;20577;-82
2021/12/01 10:52:28;;;;;;;3.13;1.20;;;9.70;81.50;;;;;;5078346;28;20235;-83
2021/12/01 10:55:08;;;;;;;10.10;1.60;;;9.60;81.20;;;;;;5096225;28;20226;-82
2021/12/01 10:57:45;;;;;;;5.95;1.30;;;9.70;81.80;;;;;;5098640;28;20168;-82
2021/12/01 11:00:43;;;;;;;2.35;1.02;;;9.60;81.50;;;;;;5081080;28;20187;-81
2021/12/01 11:03:17;;;;;;;8.00;1.02;;;9.70;81.90;;;;;;5095987;28;20176;-83
2021/12/01 11:05:45;;;;;;;1.92;0.93;;;9.60;81.40;;;;;;5078928;28;20677;-83
2021/12/01 11:08:14;;;;;;;3.03;1.10;;;9.60;81.50;;;;;;5078724;28;20243;-83
2021/12/01 11:10:41;;;;;;;9.88;1.40;;;9.60;81.20;;;;;;5096905;28;20263;-82
2021/12/01 11:13:07;;;;;;;3.08;1.30;;;9.70;81.10;;;;;;5095500;28;20172;-83
2021/12/01 11:15:45;;;;;;;2.77;1.47;;;9.80;80.90;;;;;;5078961;28;20228;-83
2021/12/01 11:18:18;;;;;;;2.53;1.10;;;9.70;80.20;;;;;;5081225;28;20417;-83
2021/12/01 11:20:47;;;;;;;16.58;1.67;;;9.80;80.20;;;;;;5080700;28;20737;-83
2021/12/01 11:23:12;;;;;;;28.92;4.32;;;9.80;79.70;;;;;;5066619;28;20201;-82
2021/12/01 11:25:39;;;;;;;10.10;1.53;;;9.80;79.80;;;;;;5074498;28;20370;-81
2021/12/01 11:28:08;;;;;;;3.95;1.38;;;9.90;79.90;;;;;;5062704;28;20176;-81
2021/12/01 11:30:35;;;;;;;3.53;1.50;;;9.90;79.70;;;;;;5081190;28;20247;-82
2021/12/01 11:33:01;;;;;;;1.60;0.93;;;10.10;79.40;;;;;;5061009;28;20177;-82
2021/12/01 11:35:27;;;;;;;3.33;1.03;;;10.00;78.80;;;;;;5069588;28;20225;-82
2021/12/01 11:37:55;;;;;;;2.97;1.23;;;10.00;78.50;;;;;;5084817;28;20199;-82
2021/12/01 11:40:26;;;;;;;4.50;1.27;;;10.10;78.30;;;;;;5102107;28;20180;-83
2021/12/01 11:42:51;;;;;;;1.73;1.13;;;10.10;77.80;;;;;;5084048;28;20618;-81
2021/12/01 11:45:17;;;;;;;2.27;1.80;;;10.30;78.10;;;;;;5085053;28;20227;-82
2021/12/01 11:47:47;;;;;;;4.65;1.08;;;10.50;78.10;;;;;;5109886;28;20164;-82
2021/12/01 11:50:33;;;;;;;4.47;0.95;;;10.40;77.50;;;;;;5097275;28;20229;-81
2021/12/01 11:53:24;;;;;;;9.02;1.60;;;10.50;77.60;;;;;;5090953;28;20243;-81
2021/12/01 11:55:56;;;;;;;3.00;1.50;;;10.70;77.70;;;;;;5098306;28;20172;-81
2021/12/01 11:58:40;;;;;;;3.42;1.35;;;10.70;77.30;;;;;;5092421;28;20206;-81
2021/12/01 12:01:21;;;;;;;4.30;1.17;;;10.70;77.10;;;;;;5104888;28;20598;-83
2021/12/01 12:04:09;;;;;;;7.38;1.55;;;10.70;77.20;;;;;;5104494;28;20195;-90
2021/12/01 12:06:47;;;;;;;7.47;1.48;;;10.70;77.10;;;;;;5085424;28;20686;-83
2021/12/01 12:09:18;;;;;;;5.63;1.50;;;10.80;77.10;;;;;;5084384;28;20183;-85
2021/12/01 12:11:50;;;;;;;9.43;1.98;;;10.80;77.20;;;;;;5100359;28;20210;-86
2021/12/01 12:14:25;;;;;;;8.30;1.33;;;10.80;77.20;;;;;;5099577;28;20208;-86
2021/12/01 12:17:12;;;;;;;5.28;1.27;;;10.90;77.10;;;;;;5102037;28;20234;-84
2021/12/01 12:19:55;;;;;;;3.10;1.10;;;11.00;76.60;;;;;;5090232;28;20179;-83
2021/12/01 12:23:01;;;;;;;6.35;1.60;;;11.10;76.70;;;;;;5119466;28;20228;-86
2021/12/01 12:25:44;;;;;;;8.32;2.42;;;11.00;76.40;;;;;;5099764;28;20326;-83
2021/12/01 12:28:25;;;;;;;7.93;1.55;;;11.00;76.30;;;;;;5085665;28;20191;-84
2021/12/01 12:30:53;;;;;;;3.67;1.55;;;10.90;76.40;;;;;;5101798;28;20250;-84
2021/12/01 12:33:26;;;;;;;5.72;1.95;;;10.90;76.60;;;;;;5084027;28;20176;-84
2021/12/01 12:36:08;;;;;;;3.20;1.40;;;11.00;76.70;;;;;;5082928;28;20198;-84
2021/12/01 12:38:34;;;;;;;3.42;1.40;;;11.00;76.80;;;;;;5082294;28;20202;-86
2021/12/01 12:41:08;;;;;;;14.20;3.33;;;11.00;76.30;;;;;;5082877;28;20180;-87
2021/12/01 12:43:36;;;;;;;7.75;1.83;;;11.10;76.10;;;;;;5100708;28;20168;-84
2021/12/01 12:46:12;;;;;;;4.82;1.30;;;11.10;75.80;;;;;;5102001;28;20207;-84
2021/12/01 12:48:44;;;;;;;6.07;1.90;;;11.10;75.40;;;;;;5096062;28;20167;-84
2021/12/01 12:51:17;;;;;;;5.18;1.85;;;11.00;75.20;;;;;;5086161;28;20172;-84
2021/12/01 12:54:03;;;;;;;8.65;1.83;;;11.00;74.90;;;;;;5086254;28;20204;-84
2021/12/01 12:56:34;;;;;;;5.10;1.50;;;11.00;75.10;;;;;;5095040;28;20176;-84
2021/12/01 12:59:19;;;;;;;2.50;1.45;;;10.90;75.20;;;;;;5098353;28;20266;-84
2021/12/01 13:01:47;;;;;;;2.40;1.60;;;10.90;75.60;;;;;;5096853;28;20172;-84